sensor_id;sensor_type;location;lat;lon;timestamp;P1;durP1;ratioP1;P2;durP2;ratioP2
21162;SDS011;10739;52.198;20.908;2024-01-11T00:01:17;118.78;;;49.33;;
21162;SDS011;10739;52.198;20.908;2024-01-11T00:03:44;120.68;;;50.15;;
21162;SDS011;10739;52.198;20.908;2024-01-11T00:06:10;126.03;;;46.92;;
21162;SDS011;10739;52.198;20.908;2024-01-11T00:08:37;127.75;;;50.40;;
21162;SDS011;10739;52.198;20.908;2024-01-11T00:11:03;123.90;;;49.03;;
21162;SDS011;10739;52.198;20.908;2024-01-11T00:13:29;133.95;;;49.10;;
21162;SDS011;10739;52.198;20.908;2024-01-11T00:15:56;130.07;;;50.85;;
21162;SDS011;10739;52.198;20.908;2024-01-11T00:18:22;121.10;;;46.35;;
21162;SDS011;10739;52.198;20.908;2024-01-11T00:20:48;116.30;;;43.65;;
21162;SDS011;10739;52.198;20.908;2024-01-11T00:23:14;119.40;;;45.20;;
21162;SDS011;10739;52.198;20.908;2024-01-11T00:25:41;114.43;;;48.05;;
21162;SDS011;10739;52.198;20.908;2024-01-11T00:28:07;109.75;;;45.55;;
21162;SDS011;10739;52.198;20.908;2024-01-11T00:30:33;109.65;;;43.65;;
21162;SDS011;10739;52.198;20.908;2024-01-11T00:32:59;130.30;;;48.75;;
21162;SDS011;10739;52.198;20.908;2024-01-11T00:35:26;121.05;;;48.33;;
21162;SDS011;10739;52.198;20.908;2024-01-11T00:37:52;110.18;;;42.42;;
21162;SDS011;10739;52.198;20.908;2024-01-11T00:40:18;116.60;;;47.25;;
21162;SDS011;10739;52.198;20.908;2024-01-11T00:42:45;117.10;;;46.92;;
21162;SDS011;10739;52.198;20.908;2024-01-11T00:45:11;126.32;;;49.17;;
21162;SDS011;10739;52.198;20.908;2024-01-11T00:47:37;121.68;;;49.50;;
21162;SDS011;10739;52.198;20.908;2024-01-11T00:50:04;112.88;;;46.20;;
21162;SDS011;10739;52.198;20.908;2024-01-11T00:52:31;130.43;;;50.58;;
21162;SDS011;10739;52.198;20.908;2024-01-11T00:54:57;119.70;;;50.17;;
21162;SDS011;10739;52.198;20.908;2024-01-11T00:57:24;113.43;;;46.22;;
21162;SDS011;10739;52.198;20.908;2024-01-11T00:59:50;124.00;;;49.53;;
21162;SDS011;10739;52.198;20.908;2024-01-11T01:02:16;112.07;;;45.10;;
21162;SDS011;10739;52.198;20.908;2024-01-11T01:04:45;113.28;;;48.78;;
21162;SDS011;10739;52.198;20.908;2024-01-11T01:07:11;117.40;;;46.65;;
21162;SDS011;10739;52.198;20.908;2024-01-11T01:09:38;114.45;;;45.58;;
21162;SDS011;10739;52.198;20.908;2024-01-11T01:12:05;126.85;;;46.95;;
21162;SDS011;10739;52.198;20.908;2024-01-11T01:14:32;109.55;;;47.10;;
21162;SDS011;10739;52.198;20.908;2024-01-11T01:16:59;113.85;;;46.47;;
21162;SDS011;10739;52.198;20.908;2024-01-11T01:19:25;95.38;;;35.90;;
21162;SDS011;10739;52.198;20.908;2024-01-11T01:21:51;110.70;;;45.20;;
21162;SDS011;10739;52.198;20.908;2024-01-11T01:24:17;111.80;;;46.60;;
21162;SDS011;10739;52.198;20.908;2024-01-11T01:26:44;107.82;;;43.97;;
21162;SDS011;10739;52.198;20.908;2024-01-11T01:29:10;114.78;;;45.83;;
21162;SDS011;10739;52.198;20.908;2024-01-11T01:31:37;98.60;;;42.50;;
21162;SDS011;10739;52.198;20.908;2024-01-11T01:34:04;96.53;;;41.67;;
21162;SDS011;10739;52.198;20.908;2024-01-11T01:36:30;115.18;;;43.45;;
21162;SDS011;10739;52.198;20.908;2024-01-11T01:38:56;109.18;;;43.58;;
21162;SDS011;10739;52.198;20.908;2024-01-11T01:41:23;111.78;;;45.45;;
21162;SDS011;10739;52.198;20.908;2024-01-11T01:43:49;99.32;;;42.22;;
21162;SDS011;10739;52.198;20.908;2024-01-11T01:46:18;98.00;;;39.53;;
21162;SDS011;10739;52.198;20.908;2024-01-11T01:48:54;93.97;;;35.47;;
21162;SDS011;10739;52.198;20.908;2024-01-11T01:51:24;113.32;;;45.45;;
21162;SDS011;10739;52.198;20.908;2024-01-11T01:53:54;112.78;;;46.67;;
21162;SDS011;10739;52.198;20.908;2024-01-11T01:56:23;99.78;;;41.38;;
21162;SDS011;10739;52.198;20.908;2024-01-11T01:58:50;98.80;;;40.72;;
21162;SDS011;10739;52.198;20.908;2024-01-11T02:01:18;100.72;;;42.58;;
21162;SDS011;10739;52.198;20.908;2024-01-11T02:03:47;103.55;;;41.78;;
21162;SDS011;10739;52.198;20.908;2024-01-11T02:06:16;121.35;;;46.08;;
21162;SDS011;10739;52.198;20.908;2024-01-11T02:11:19;101.47;;;36.47;;
21162;SDS011;10739;52.198;20.908;2024-01-11T02:13:46;108.90;;;46.00;;
21162;SDS011;10739;52.198;20.908;2024-01-11T02:16:16;105.57;;;43.45;;
21162;SDS011;10739;52.198;20.908;2024-01-11T02:18:42;106.53;;;45.78;;
21162;SDS011;10739;52.198;20.908;2024-01-11T02:21:09;82.70;;;33.50;;
21162;SDS011;10739;52.198;20.908;2024-01-11T02:23:44;101.70;;;41.53;;
21162;SDS011;10739;52.198;20.908;2024-01-11T02:26:32;102.57;;;41.47;;
21162;SDS011;10739;52.198;20.908;2024-01-11T02:28:59;104.88;;;41.55;;
21162;SDS011;10739;52.198;20.908;2024-01-11T02:31:25;100.63;;;42.03;;
21162;SDS011;10739;52.198;20.908;2024-01-11T02:33:52;96.45;;;40.13;;
21162;SDS011;10739;52.198;20.908;2024-01-11T02:36:22;94.85;;;40.20;;
21162;SDS011;10739;52.198;20.908;2024-01-11T02:38:50;94.50;;;36.58;;
21162;SDS011;10739;52.198;20.908;2024-01-11T02:41:18;106.53;;;39.72;;
21162;SDS011;10739;52.198;20.908;2024-01-11T02:43:47;87.88;;;36.10;;
21162;SDS011;10739;52.198;20.908;2024-01-11T02:46:14;89.05;;;37.50;;
21162;SDS011;10739;52.198;20.908;2024-01-11T02:48:43;90.47;;;37.90;;
21162;SDS011;10739;52.198;20.908;2024-01-11T02:51:09;87.57;;;36.65;;
21162;SDS011;10739;52.198;20.908;2024-01-11T02:53:35;72.65;;;30.23;;
21162;SDS011;10739;52.198;20.908;2024-01-11T02:56:02;87.97;;;34.95;;
21162;SDS011;10739;52.198;20.908;2024-01-11T02:58:28;81.38;;;35.00;;
21162;SDS011;10739;52.198;20.908;2024-01-11T03:00:55;81.30;;;33.15;;
21162;SDS011;10739;52.198;20.908;2024-01-11T03:03:21;66.55;;;29.92;;
21162;SDS011;10739;52.198;20.908;2024-01-11T03:05:47;84.63;;;34.45;;
21162;SDS011;10739;52.198;20.908;2024-01-11T03:08:13;76.95;;;31.10;;
21162;SDS011;10739;52.198;20.908;2024-01-11T03:10:40;86.70;;;30.75;;
21162;SDS011;10739;52.198;20.908;2024-01-11T03:13:07;74.00;;;31.75;;
21162;SDS011;10739;52.198;20.908;2024-01-11T03:15:36;69.75;;;29.95;;
21162;SDS011;10739;52.198;20.908;2024-01-11T03:18:02;80.10;;;30.75;;
21162;SDS011;10739;52.198;20.908;2024-01-11T03:20:30;77.88;;;32.47;;
21162;SDS011;10739;52.198;20.908;2024-01-11T03:22:56;80.20;;;33.83;;
21162;SDS011;10739;52.198;20.908;2024-01-11T03:25:23;85.25;;;33.53;;
21162;SDS011;10739;52.198;20.908;2024-01-11T03:27:49;81.65;;;32.67;;
21162;SDS011;10739;52.198;20.908;2024-01-11T03:30:15;61.85;;;24.25;;
21162;SDS011;10739;52.198;20.908;2024-01-11T03:32:41;79.38;;;33.17;;
21162;SDS011;10739;52.198;20.908;2024-01-11T03:35:08;85.65;;;34.20;;
21162;SDS011;10739;52.198;20.908;2024-01-11T03:37:35;79.78;;;31.67;;
21162;SDS011;10739;52.198;20.908;2024-01-11T03:40:02;83.68;;;34.55;;
21162;SDS011;10739;52.198;20.908;2024-01-11T03:42:29;93.20;;;35.38;;
21162;SDS011;10739;52.198;20.908;2024-01-11T03:44:56;97.25;;;35.42;;
21162;SDS011;10739;52.198;20.908;2024-01-11T03:47:22;96.57;;;35.70;;
21162;SDS011;10739;52.198;20.908;2024-01-11T03:49:48;85.45;;;35.85;;
21162;SDS011;10739;52.198;20.908;2024-01-11T03:52:15;79.32;;;31.27;;
21162;SDS011;10739;52.198;20.908;2024-01-11T03:54:41;89.88;;;34.75;;
21162;SDS011;10739;52.198;20.908;2024-01-11T03:57:07;94.43;;;36.88;;
21162;SDS011;10739;52.198;20.908;2024-01-11T03:59:34;84.43;;;34.53;;
21162;SDS011;10739;52.198;20.908;2024-01-11T04:02:00;88.63;;;33.72;;
21162;SDS011;10739;52.198;20.908;2024-01-11T04:04:26;86.03;;;33.28;;
21162;SDS011;10739;52.198;20.908;2024-01-11T04:06:53;88.88;;;35.03;;
21162;SDS011;10739;52.198;20.908;2024-01-11T04:09:19;98.50;;;35.90;;
21162;SDS011;10739;52.198;20.908;2024-01-11T04:11:46;86.55;;;32.78;;
21162;SDS011;10739;52.198;20.908;2024-01-11T04:14:12;92.53;;;34.40;;
21162;SDS011;10739;52.198;20.908;2024-01-11T04:16:42;95.72;;;36.75;;
21162;SDS011;10739;52.198;20.908;2024-01-11T04:19:09;95.68;;;33.72;;
21162;SDS011;10739;52.198;20.908;2024-01-11T04:21:36;87.35;;;34.72;;
21162;SDS011;10739;52.198;20.908;2024-01-11T04:24:04;98.57;;;37.33;;
21162;SDS011;10739;52.198;20.908;2024-01-11T04:26:32;98.07;;;38.00;;
21162;SDS011;10739;52.198;20.908;2024-01-11T04:28:58;89.63;;;36.55;;
21162;SDS011;10739;52.198;20.908;2024-01-11T04:31:25;75.38;;;31.73;;
21162;SDS011;10739;52.198;20.908;2024-01-11T04:33:52;94.95;;;35.47;;
21162;SDS011;10739;52.198;20.908;2024-01-11T04:36:19;98.28;;;36.40;;
21162;SDS011;10739;52.198;20.908;2024-01-11T04:38:45;100.05;;;37.25;;
21162;SDS011;10739;52.198;20.908;2024-01-11T04:41:11;108.47;;;37.10;;
21162;SDS011;10739;52.198;20.908;2024-01-11T04:43:39;93.30;;;36.83;;
21162;SDS011;10739;52.198;20.908;2024-01-11T04:48:48;96.05;;;36.00;;
21162;SDS011;10739;52.198;20.908;2024-01-11T04:51:15;106.18;;;36.28;;
21162;SDS011;10739;52.198;20.908;2024-01-11T04:53:43;97.93;;;35.10;;
21162;SDS011;10739;52.198;20.908;2024-01-11T04:56:13;95.50;;;35.20;;
21162;SDS011;10739;52.198;20.908;2024-01-11T04:58:42;93.38;;;32.42;;
21162;SDS011;10739;52.198;20.908;2024-01-11T05:01:13;84.32;;;31.02;;
21162;SDS011;10739;52.198;20.908;2024-01-11T05:03:44;95.00;;;33.42;;
21162;SDS011;10739;52.198;20.908;2024-01-11T05:06:15;94.80;;;33.25;;
21162;SDS011;10739;52.198;20.908;2024-01-11T05:08:47;102.85;;;34.83;;
21162;SDS011;10739;52.198;20.908;2024-01-11T05:11:18;93.38;;;32.05;;
21162;SDS011;10739;52.198;20.908;2024-01-11T05:13:48;95.50;;;34.75;;
21162;SDS011;10739;52.198;20.908;2024-01-11T05:16:22;98.38;;;36.08;;
21162;SDS011;10739;52.198;20.908;2024-01-11T05:18:48;90.22;;;33.53;;
21162;SDS011;10739;52.198;20.908;2024-01-11T05:21:16;98.03;;;32.30;;
21162;SDS011;10739;52.198;20.908;2024-01-11T05:23:43;88.60;;;32.63;;
21162;SDS011;10739;52.198;20.908;2024-01-11T05:26:09;76.22;;;28.02;;
21162;SDS011;10739;52.198;20.908;2024-01-11T05:28:36;87.53;;;30.52;;
21162;SDS011;10739;52.198;20.908;2024-01-11T05:31:07;88.53;;;32.80;;
21162;SDS011;10739;52.198;20.908;2024-01-11T05:33:38;81.60;;;32.85;;
21162;SDS011;10739;52.198;20.908;2024-01-11T05:36:05;89.95;;;33.60;;
21162;SDS011;10739;52.198;20.908;2024-01-11T05:38:33;84.35;;;31.67;;
21162;SDS011;10739;52.198;20.908;2024-01-11T05:41:00;89.80;;;34.40;;
21162;SDS011;10739;52.198;20.908;2024-01-11T05:43:27;72.70;;;25.98;;
21162;SDS011;10739;52.198;20.908;2024-01-11T05:45:54;92.43;;;33.88;;
21162;SDS011;10739;52.198;20.908;2024-01-11T05:48:20;82.20;;;32.65;;
21162;SDS011;10739;52.198;20.908;2024-01-11T05:50:46;56.78;;;23.25;;
21162;SDS011;10739;52.198;20.908;2024-01-11T05:53:13;92.28;;;33.10;;
21162;SDS011;10739;52.198;20.908;2024-01-11T05:55:39;80.45;;;29.00;;
21162;SDS011;10739;52.198;20.908;2024-01-11T05:58:06;82.35;;;32.22;;
21162;SDS011;10739;52.198;20.908;2024-01-11T06:00:32;67.30;;;26.60;;
21162;SDS011;10739;52.198;20.908;2024-01-11T06:02:59;79.25;;;30.55;;
21162;SDS011;10739;52.198;20.908;2024-01-11T06:05:25;52.13;;;22.08;;
21162;SDS011;10739;52.198;20.908;2024-01-11T06:07:52;75.20;;;29.25;;
21162;SDS011;10739;52.198;20.908;2024-01-11T06:10:18;81.20;;;28.73;;
21162;SDS011;10739;52.198;20.908;2024-01-11T06:12:44;77.70;;;29.73;;
21162;SDS011;10739;52.198;20.908;2024-01-11T06:15:11;64.05;;;26.15;;
21162;SDS011;10739;52.198;20.908;2024-01-11T06:17:37;70.03;;;24.35;;
21162;SDS011;10739;52.198;20.908;2024-01-11T06:20:04;70.20;;;25.83;;
21162;SDS011;10739;52.198;20.908;2024-01-11T06:22:30;70.50;;;26.00;;
21162;SDS011;10739;52.198;20.908;2024-01-11T06:24:56;60.65;;;26.23;;
21162;SDS011;10739;52.198;20.908;2024-01-11T06:27:25;64.82;;;25.48;;
21162;SDS011;10739;52.198;20.908;2024-01-11T06:29:51;69.25;;;25.20;;
21162;SDS011;10739;52.198;20.908;2024-01-11T06:32:17;64.97;;;24.33;;
21162;SDS011;10739;52.198;20.908;2024-01-11T06:34:44;53.88;;;23.23;;
21162;SDS011;10739;52.198;20.908;2024-01-11T06:37:11;65.72;;;24.70;;
21162;SDS011;10739;52.198;20.908;2024-01-11T06:39:38;62.08;;;24.15;;
21162;SDS011;10739;52.198;20.908;2024-01-11T06:42:04;58.47;;;22.70;;
21162;SDS011;10739;52.198;20.908;2024-01-11T06:44:30;65.80;;;23.27;;
21162;SDS011;10739;52.198;20.908;2024-01-11T06:46:57;60.75;;;23.85;;
21162;SDS011;10739;52.198;20.908;2024-01-11T06:49:23;59.53;;;23.10;;
21162;SDS011;10739;52.198;20.908;2024-01-11T06:51:50;56.58;;;21.63;;
21162;SDS011;10739;52.198;20.908;2024-01-11T06:54:16;46.97;;;20.63;;
21162;SDS011;10739;52.198;20.908;2024-01-11T06:56:42;58.88;;;23.35;;
21162;SDS011;10739;52.198;20.908;2024-01-11T06:59:09;52.63;;;20.90;;
21162;SDS011;10739;52.198;20.908;2024-01-11T07:01:35;59.35;;;23.05;;
21162;SDS011;10739;52.198;20.908;2024-01-11T07:04:02;55.58;;;21.13;;
21162;SDS011;10739;52.198;20.908;2024-01-11T07:06:28;64.88;;;25.35;;
21162;SDS011;10739;52.198;20.908;2024-01-11T07:08:54;55.88;;;23.60;;
21162;SDS011;10739;52.198;20.908;2024-01-11T07:11:21;62.28;;;24.30;;
21162;SDS011;10739;52.198;20.908;2024-01-11T07:13:47;67.70;;;23.45;;
21162;SDS011;10739;52.198;20.908;2024-01-11T07:16:14;61.35;;;22.38;;
21162;SDS011;10739;52.198;20.908;2024-01-11T07:18:40;63.20;;;21.45;;
21162;SDS011;10739;52.198;20.908;2024-01-11T07:21:06;67.85;;;23.77;;
21162;SDS011;10739;52.198;20.908;2024-01-11T07:23:32;69.65;;;23.73;;
21162;SDS011;10739;52.198;20.908;2024-01-11T07:25:59;65.10;;;20.27;;
21162;SDS011;10739;52.198;20.908;2024-01-11T07:28:25;65.15;;;23.45;;
21162;SDS011;10739;52.198;20.908;2024-01-11T07:30:52;78.03;;;22.98;;
21162;SDS011;10739;52.198;20.908;2024-01-11T07:33:19;80.15;;;23.38;;
21162;SDS011;10739;52.198;20.908;2024-01-11T07:35:46;76.40;;;22.83;;
21162;SDS011;10739;52.198;20.908;2024-01-11T07:38:13;80.95;;;24.65;;
21162;SDS011;10739;52.198;20.908;2024-01-11T07:40:39;56.50;;;21.52;;
21162;SDS011;10739;52.198;20.908;2024-01-11T07:43:06;68.78;;;22.67;;
21162;SDS011;10739;52.198;20.908;2024-01-11T07:45:33;66.10;;;25.38;;
21162;SDS011;10739;52.198;20.908;2024-01-11T07:48:00;51.97;;;19.67;;
21162;SDS011;10739;52.198;20.908;2024-01-11T07:50:29;71.10;;;23.13;;
21162;SDS011;10739;52.198;20.908;2024-01-11T07:52:56;72.40;;;24.52;;
21162;SDS011;10739;52.198;20.908;2024-01-11T07:55:22;57.15;;;19.80;;
21162;SDS011;10739;52.198;20.908;2024-01-11T07:57:49;68.20;;;22.38;;
21162;SDS011;10739;52.198;20.908;2024-01-11T08:00:15;64.32;;;21.88;;
21162;SDS011;10739;52.198;20.908;2024-01-11T08:02:42;58.22;;;21.77;;
21162;SDS011;10739;52.198;20.908;2024-01-11T08:05:08;66.93;;;23.38;;
21162;SDS011;10739;52.198;20.908;2024-01-11T08:07:38;77.65;;;25.13;;
21162;SDS011;10739;52.198;20.908;2024-01-11T08:10:04;76.78;;;25.15;;
21162;SDS011;10739;52.198;20.908;2024-01-11T08:12:32;80.03;;;25.70;;
21162;SDS011;10739;52.198;20.908;2024-01-11T08:14:58;80.05;;;26.63;;
21162;SDS011;10739;52.198;20.908;2024-01-11T08:17:25;83.00;;;26.60;;
21162;SDS011;10739;52.198;20.908;2024-01-11T08:19:51;69.05;;;22.45;;
21162;SDS011;10739;52.198;20.908;2024-01-11T08:22:18;75.47;;;24.42;;
21162;SDS011;10739;52.198;20.908;2024-01-11T08:24:45;72.30;;;21.60;;
21162;SDS011;10739;52.198;20.908;2024-01-11T08:27:13;79.68;;;26.70;;
21162;SDS011;10739;52.198;20.908;2024-01-11T08:29:42;70.45;;;24.77;;
21162;SDS011;10739;52.198;20.908;2024-01-11T08:32:09;75.20;;;25.60;;
21162;SDS011;10739;52.198;20.908;2024-01-11T08:34:35;81.57;;;26.40;;
21162;SDS011;10739;52.198;20.908;2024-01-11T08:37:02;68.25;;;21.30;;
21162;SDS011;10739;52.198;20.908;2024-01-11T08:39:28;90.82;;;25.58;;
21162;SDS011;10739;52.198;20.908;2024-01-11T08:41:54;88.07;;;26.00;;
21162;SDS011;10739;52.198;20.908;2024-01-11T08:44:22;71.88;;;21.80;;
21162;SDS011;10739;52.198;20.908;2024-01-11T08:46:48;95.00;;;28.23;;
21162;SDS011;10739;52.198;20.908;2024-01-11T08:49:14;85.95;;;23.92;;
21162;SDS011;10739;52.198;20.908;2024-01-11T08:51:40;73.85;;;22.60;;
21162;SDS011;10739;52.198;20.908;2024-01-11T08:54:07;89.50;;;25.48;;
21162;SDS011;10739;52.198;20.908;2024-01-11T08:56:35;86.43;;;26.23;;
21162;SDS011;10739;52.198;20.908;2024-01-11T08:59:01;83.82;;;26.23;;
21162;SDS011;10739;52.198;20.908;2024-01-11T09:01:28;92.78;;;27.70;;
21162;SDS011;10739;52.198;20.908;2024-01-11T09:03:55;74.28;;;20.90;;
21162;SDS011;10739;52.198;20.908;2024-01-11T09:06:21;82.75;;;25.40;;
21162;SDS011;10739;52.198;20.908;2024-01-11T09:08:47;88.65;;;27.42;;
21162;SDS011;10739;52.198;20.908;2024-01-11T09:11:15;80.38;;;24.08;;
21162;SDS011;10739;52.198;20.908;2024-01-11T09:13:42;61.45;;;20.00;;
21162;SDS011;10739;52.198;20.908;2024-01-11T09:16:08;70.88;;;22.88;;
21162;SDS011;10739;52.198;20.908;2024-01-11T09:18:35;78.22;;;23.90;;
21162;SDS011;10739;52.198;20.908;2024-01-11T09:21:01;69.47;;;24.10;;
21162;SDS011;10739;52.198;20.908;2024-01-11T09:23:29;73.05;;;23.65;;
21162;SDS011;10739;52.198;20.908;2024-01-11T09:25:55;57.90;;;19.55;;
21162;SDS011;10739;52.198;20.908;2024-01-11T09:28:22;60.17;;;20.73;;
21162;SDS011;10739;52.198;20.908;2024-01-11T09:30:48;63.75;;;21.63;;
21162;SDS011;10739;52.198;20.908;2024-01-11T09:33:15;64.53;;;24.10;;
21162;SDS011;10739;52.198;20.908;2024-01-11T09:35:41;64.68;;;23.20;;
21162;SDS011;10739;52.198;20.908;2024-01-11T09:38:08;72.80;;;24.65;;
21162;SDS011;10739;52.198;20.908;2024-01-11T09:40:34;72.90;;;22.75;;
21162;SDS011;10739;52.198;20.908;2024-01-11T09:43:01;70.93;;;24.50;;
21162;SDS011;10739;52.198;20.908;2024-01-11T09:45:31;75.28;;;24.67;;
21162;SDS011;10739;52.198;20.908;2024-01-11T09:47:58;74.10;;;24.40;;
21162;SDS011;10739;52.198;20.908;2024-01-11T09:50:25;74.00;;;26.80;;
21162;SDS011;10739;52.198;20.908;2024-01-11T09:52:52;81.45;;;28.20;;
21162;SDS011;10739;52.198;20.908;2024-01-11T09:55:18;84.78;;;27.95;;
21162;SDS011;10739;52.198;20.908;2024-01-11T09:57:46;65.32;;;23.45;;
21162;SDS011;10739;52.198;20.908;2024-01-11T10:00:16;68.22;;;25.65;;
21162;SDS011;10739;52.198;20.908;2024-01-11T10:02:45;66.07;;;25.60;;
21162;SDS011;10739;52.198;20.908;2024-01-11T10:05:12;70.38;;;25.52;;
21162;SDS011;10739;52.198;20.908;2024-01-11T10:07:42;71.60;;;25.77;;
21162;SDS011;10739;52.198;20.908;2024-01-11T10:10:08;68.10;;;24.77;;
21162;SDS011;10739;52.198;20.908;2024-01-11T10:12:35;67.70;;;25.13;;
21162;SDS011;10739;52.198;20.908;2024-01-11T10:15:09;56.47;;;23.40;;
21162;SDS011;10739;52.198;20.908;2024-01-11T10:17:37;68.72;;;23.25;;
21162;SDS011;10739;52.198;20.908;2024-01-11T10:20:10;57.80;;;22.10;;
21162;SDS011;10739;52.198;20.908;2024-01-11T10:22:40;69.43;;;23.60;;
21162;SDS011;10739;52.198;20.908;2024-01-11T10:25:11;64.85;;;24.08;;
21162;SDS011;10739;52.198;20.908;2024-01-11T10:27:42;67.70;;;25.52;;
21162;SDS011;10739;52.198;20.908;2024-01-11T10:30:14;57.22;;;21.85;;
21162;SDS011;10739;52.198;20.908;2024-01-11T10:32:43;75.72;;;24.67;;
21162;SDS011;10739;52.198;20.908;2024-01-11T10:35:10;60.08;;;24.52;;
21162;SDS011;10739;52.198;20.908;2024-01-11T10:37:38;63.50;;;24.80;;
21162;SDS011;10739;52.198;20.908;2024-01-11T10:40:07;70.55;;;25.00;;
21162;SDS011;10739;52.198;20.908;2024-01-11T10:42:41;71.15;;;25.15;;
21162;SDS011;10739;52.198;20.908;2024-01-11T10:45:16;73.95;;;27.58;;
21162;SDS011;10739;52.198;20.908;2024-01-11T10:50:19;68.70;;;25.88;;
21162;SDS011;10739;52.198;20.908;2024-01-11T10:56:13;68.07;;;25.88;;
21162;SDS011;10739;52.198;20.908;2024-01-11T10:58:44;78.18;;;26.20;;
21162;SDS011;10739;52.198;20.908;2024-01-11T11:01:12;87.18;;;29.48;;
21162;SDS011;10739;52.198;20.908;2024-01-11T11:03:39;79.97;;;26.77;;
21162;SDS011;10739;52.198;20.908;2024-01-11T11:06:09;86.13;;;28.83;;
21162;SDS011;10739;52.198;20.908;2024-01-11T11:08:37;84.82;;;31.45;;
21162;SDS011;10739;52.198;20.908;2024-01-11T11:11:05;73.28;;;23.98;;
21162;SDS011;10739;52.198;20.908;2024-01-11T11:13:32;96.45;;;29.77;;
21162;SDS011;10739;52.198;20.908;2024-01-11T11:16:02;82.00;;;26.98;;
21162;SDS011;10739;52.198;20.908;2024-01-11T11:18:29;97.68;;;31.83;;
21162;SDS011;10739;52.198;20.908;2024-01-11T11:20:57;86.80;;;29.70;;
21162;SDS011;10739;52.198;20.908;2024-01-11T11:23:24;90.72;;;28.20;;
21162;SDS011;10739;52.198;20.908;2024-01-11T11:25:51;93.85;;;30.80;;
21162;SDS011;10739;52.198;20.908;2024-01-11T11:30:50;100.75;;;29.63;;
21162;SDS011;10739;52.198;20.908;2024-01-11T11:33:19;81.22;;;25.05;;
21162;SDS011;10739;52.198;20.908;2024-01-11T11:35:51;87.30;;;28.42;;
21162;SDS011;10739;52.198;20.908;2024-01-11T11:38:23;99.07;;;28.35;;
21162;SDS011;10739;52.198;20.908;2024-01-11T11:40:53;98.78;;;30.27;;
21162;SDS011;10739;52.198;20.908;2024-01-11T11:43:25;107.10;;;33.15;;
21162;SDS011;10739;52.198;20.908;2024-01-11T11:45:53;95.88;;;31.55;;
21162;SDS011;10739;52.198;20.908;2024-01-11T11:51:01;99.22;;;31.63;;
21162;SDS011;10739;52.198;20.908;2024-01-11T11:53:41;85.43;;;27.08;;
21162;SDS011;10739;52.198;20.908;2024-01-11T11:56:09;107.95;;;33.33;;
21162;SDS011;10739;52.198;20.908;2024-01-11T11:58:36;104.03;;;32.53;;
21162;SDS011;10739;52.198;20.908;2024-01-11T12:01:03;90.93;;;28.00;;
21162;SDS011;10739;52.198;20.908;2024-01-11T12:03:37;113.57;;;31.58;;
21162;SDS011;10739;52.198;20.908;2024-01-11T12:06:08;114.22;;;30.30;;
21162;SDS011;10739;52.198;20.908;2024-01-11T12:08:41;116.53;;;33.53;;
21162;SDS011;10739;52.198;20.908;2024-01-11T12:11:08;104.13;;;32.45;;
21162;SDS011;10739;52.198;20.908;2024-01-11T12:13:38;93.15;;;29.73;;
21162;SDS011;10739;52.198;20.908;2024-01-11T12:16:06;102.68;;;31.38;;
21162;SDS011;10739;52.198;20.908;2024-01-11T12:18:33;95.95;;;27.77;;
21162;SDS011;10739;52.198;20.908;2024-01-11T12:21:00;115.47;;;34.60;;
21162;SDS011;10739;52.198;20.908;2024-01-11T12:23:27;86.03;;;27.67;;
21162;SDS011;10739;52.198;20.908;2024-01-11T12:25:56;111.25;;;33.35;;
21162;SDS011;10739;52.198;20.908;2024-01-11T12:28:23;98.72;;;32.30;;
21162;SDS011;10739;52.198;20.908;2024-01-11T12:30:50;100.43;;;31.42;;
21162;SDS011;10739;52.198;20.908;2024-01-11T12:33:16;98.75;;;30.75;;
21162;SDS011;10739;52.198;20.908;2024-01-11T12:35:44;114.63;;;34.83;;
21162;SDS011;10739;52.198;20.908;2024-01-11T12:38:11;106.82;;;32.20;;
21162;SDS011;10739;52.198;20.908;2024-01-11T12:40:37;110.60;;;33.80;;
21162;SDS011;10739;52.198;20.908;2024-01-11T12:43:05;104.85;;;32.88;;
21162;SDS011;10739;52.198;20.908;2024-01-11T12:45:36;91.00;;;28.38;;
21162;SDS011;10739;52.198;20.908;2024-01-11T12:48:06;103.95;;;32.08;;
21162;SDS011;10739;52.198;20.908;2024-01-11T12:50:34;102.03;;;28.25;;
21162;SDS011;10739;52.198;20.908;2024-01-11T12:53:12;110.10;;;32.63;;
21162;SDS011;10739;52.198;20.908;2024-01-11T12:55:46;103.32;;;32.08;;
21162;SDS011;10739;52.198;20.908;2024-01-11T12:58:18;108.22;;;36.03;;
21162;SDS011;10739;52.198;20.908;2024-01-11T13:00:49;93.25;;;33.00;;
21162;SDS011;10739;52.198;20.908;2024-01-11T13:03:15;99.70;;;32.90;;
21162;SDS011;10739;52.198;20.908;2024-01-11T13:05:42;110.00;;;34.67;;
21162;SDS011;10739;52.198;20.908;2024-01-11T13:08:09;117.40;;;38.15;;
21162;SDS011;10739;52.198;20.908;2024-01-11T13:10:35;107.93;;;33.28;;
21162;SDS011;10739;52.198;20.908;2024-01-11T13:13:03;109.72;;;31.80;;
21162;SDS011;10739;52.198;20.908;2024-01-11T13:15:31;93.47;;;33.33;;
21162;SDS011;10739;52.198;20.908;2024-01-11T13:17:57;99.03;;;32.60;;
21162;SDS011;10739;52.198;20.908;2024-01-11T13:20:25;105.45;;;34.78;;
21162;SDS011;10739;52.198;20.908;2024-01-11T13:25:45;95.28;;;28.85;;
21162;SDS011;10739;52.198;20.908;2024-01-11T13:28:13;110.28;;;37.03;;
21162;SDS011;10739;52.198;20.908;2024-01-11T13:30:41;102.70;;;37.22;;
21162;SDS011;10739;52.198;20.908;2024-01-11T13:33:10;110.35;;;36.97;;
21162;SDS011;10739;52.198;20.908;2024-01-11T13:35:37;107.13;;;34.70;;
21162;SDS011;10739;52.198;20.908;2024-01-11T13:38:06;112.50;;;35.38;;
21162;SDS011;10739;52.198;20.908;2024-01-11T13:40:32;102.30;;;35.67;;
21162;SDS011;10739;52.198;20.908;2024-01-11T13:42:59;100.35;;;34.17;;
21162;SDS011;10739;52.198;20.908;2024-01-11T13:45:28;111.50;;;36.03;;
21162;SDS011;10739;52.198;20.908;2024-01-11T13:47:58;105.00;;;35.35;;
21162;SDS011;10739;52.198;20.908;2024-01-11T13:50:26;103.25;;;35.10;;
21162;SDS011;10739;52.198;20.908;2024-01-11T13:52:54;109.45;;;35.70;;
21162;SDS011;10739;52.198;20.908;2024-01-11T13:55:23;104.85;;;36.22;;
21162;SDS011;10739;52.198;20.908;2024-01-11T13:57:50;117.78;;;35.90;;
21162;SDS011;10739;52.198;20.908;2024-01-11T14:00:18;115.90;;;36.15;;
21162;SDS011;10739;52.198;20.908;2024-01-11T14:02:45;98.72;;;35.58;;
21162;SDS011;10739;52.198;20.908;2024-01-11T14:05:13;103.95;;;33.70;;
21162;SDS011;10739;52.198;20.908;2024-01-11T14:07:44;99.20;;;36.78;;
21162;SDS011;10739;52.198;20.908;2024-01-11T14:10:11;115.43;;;38.88;;
21162;SDS011;10739;52.198;20.908;2024-01-11T14:12:39;109.72;;;35.50;;
21162;SDS011;10739;52.198;20.908;2024-01-11T14:15:07;109.28;;;36.33;;
21162;SDS011;10739;52.198;20.908;2024-01-11T14:17:38;113.20;;;34.10;;
21162;SDS011;10739;52.198;20.908;2024-01-11T14:20:06;114.60;;;36.80;;
21162;SDS011;10739;52.198;20.908;2024-01-11T14:22:37;110.30;;;36.97;;
21162;SDS011;10739;52.198;20.908;2024-01-11T14:25:05;103.13;;;35.20;;
21162;SDS011;10739;52.198;20.908;2024-01-11T14:27:32;109.13;;;38.38;;